»·PEaware :: N132KT KMLF-KSVC

N132KT :: KMLF-KSVC

FLIGHT INFORMATION

Flight Status: Arrived
Operator: Privately registered:
United States
More flights under this callsign
Pilot: Keith S. (1)
Aircraft: MITSUBISHI MU-2 MARQUISE
(MU2)
More flights by this aircraft type
Origin: KMLF Milford Mun
United States
Destination: KSVC Grant Co
United States
More flights between these airports :: More routes between these airports
Route:
File this flight plan on PilotEdge
Remarks:
Altitude:
(Current/Filed)
17,500ft
Speed:
(Current/Filed)
320kts
Departed: 07-Dec-17 09:20 AM
Arrived: 07-Dec-17 10:54 AM
Distance/Time
Traveled:
421nm/1:33
Distance/Time
To Go:
Arrived

Flight Plot

Page will automatically refresh every two minutes.

Flight plan parsing failed; only flown route is shown


Map Options




Map Legend


Flown Route
Filed Route
Departure Airport
Arrival Airport
Navaid (VOR, NDB)
Fix

Horizontal Profiles

Position Reports

Time Latitude Longitude Heading Altitude Ground
Speed
07-Dec-17 09:18 38.419080 -113.011496 32 5041ft 0kts
07-Dec-17 09:19 38.419080 -113.011496 32 5041ft 0kts
07-Dec-17 09:20 38.419080 -113.011496 32 5041ft 0kts
07-Dec-17 09:21 38.419081 -113.011495 34 5041ft 0kts
07-Dec-17 09:22 38.419081 -113.011495 33 5041ft 0kts
07-Dec-17 09:23 38.419081 -113.011495 33 5041ft 0kts
07-Dec-17 09:24 38.419738 -113.012196 280 5042ft 8kts
07-Dec-17 09:25 38.423123 -113.013338 0 5040ft 88kts
07-Dec-17 09:26 38.465899 -113.010634 4 6203ft 179kts
07-Dec-17 09:28 38.465224 -112.958978 137 7670ft 238kts
07-Dec-17 09:29 38.410915 -112.908546 139 9349ft 246kts
07-Dec-17 09:30 38.354373 -112.857562 139 10963ft 254kts
07-Dec-17 09:31 38.295805 -112.804921 139 12538ft 261kts
07-Dec-17 09:32 38.235706 -112.751063 139 14051ft 269kts
07-Dec-17 09:33 38.173784 -112.695662 138 15504ft 276kts
07-Dec-17 09:34 38.110268 -112.638952 138 16894ft 284kts
07-Dec-17 09:35 38.043465 -112.579316 138 17354ft 308kts
07-Dec-17 09:36 37.971980 -112.515864 138 17351ft 319kts
07-Dec-17 09:37 37.899344 -112.451397 138 17350ft 318kts
07-Dec-17 09:38 37.827724 -112.388153 138 17340ft 314kts
07-Dec-17 09:39 37.756865 -112.325684 139 17449ft 308kts
07-Dec-17 09:40 37.686443 -112.263683 139 17499ft 310kts
07-Dec-17 09:41 37.615471 -112.201368 139 17500ft 312kts
07-Dec-17 09:41 37.556081 -112.149334 139 17500ft 313kts
07-Dec-17 09:43 37.472743 -112.076500 139 17501ft 313kts
07-Dec-17 09:44 37.401191 -112.014121 139 17501ft 314kts
07-Dec-17 09:45 37.329447 -111.951721 139 17502ft 314kts
07-Dec-17 09:46 37.257600 -111.889383 139 17504ft 314kts
07-Dec-17 09:47 37.185960 -111.827372 139 17518ft 314kts
07-Dec-17 09:48 37.114031 -111.765251 139 17531ft 314kts
07-Dec-17 09:48 37.054377 -111.713825 139 17532ft 314kts
07-Dec-17 09:50 36.970813 -111.641945 139 17531ft 311kts
07-Dec-17 09:50 36.911548 -111.591122 139 17531ft 309kts
07-Dec-17 09:51 36.841969 -111.531612 139 17523ft 307kts
07-Dec-17 09:52 36.771607 -111.471530 139 17523ft 306kts
07-Dec-17 09:53 36.701398 -111.411700 139 17524ft 306kts
07-Dec-17 09:54 36.631180 -111.352003 139 17525ft 306kts
07-Dec-17 09:55 36.561318 -111.292736 139 17528ft 307kts
07-Dec-17 09:56 36.490874 -111.233115 139 17529ft 307kts
07-Dec-17 09:57 36.420204 -111.173435 139 17529ft 308kts
07-Dec-17 09:58 36.349597 -111.113944 139 17529ft 308kts
07-Dec-17 09:59 36.278751 -111.054381 139 17530ft 308kts
07-Dec-17 10:00 36.207780 -110.994851 139 17530ft 308kts
07-Dec-17 10:01 36.136885 -110.935509 139 17529ft 308kts
07-Dec-17 10:02 36.065945 -110.876260 139 17517ft 309kts
07-Dec-17 10:03 35.994919 -110.817057 139 17505ft 309kts
07-Dec-17 10:04 35.923907 -110.758019 139 17504ft 308kts
07-Dec-17 10:05 35.853572 -110.699686 139 17496ft 307kts
07-Dec-17 10:06 35.782767 -110.641079 139 17496ft 306kts
07-Dec-17 10:07 35.712300 -110.582873 139 17497ft 306kts
07-Dec-17 10:08 35.641499 -110.524517 139 17498ft 306kts
07-Dec-17 10:09 35.570632 -110.466231 139 17498ft 306kts
07-Dec-17 10:10 35.499871 -110.408160 139 17498ft 307kts
07-Dec-17 10:11 35.429034 -110.350154 139 17499ft 307kts
07-Dec-17 10:12 35.358618 -110.292609 140 17503ft 308kts
07-Dec-17 10:13 35.287464 -110.234597 140 17503ft 308kts
07-Dec-17 10:14 35.216047 -110.176482 140 17503ft 308kts
07-Dec-17 10:15 35.144762 -110.118607 140 17501ft 309kts
07-Dec-17 10:16 35.073190 -110.060609 140 17482ft 309kts
07-Dec-17 10:17 35.001682 -110.002812 140 17454ft 310kts
07-Dec-17 10:18 34.929619 -109.944670 140 17450ft 313kts
07-Dec-17 10:19 34.857648 -109.886737 140 17432ft 313kts
07-Dec-17 10:20 34.784994 -109.828391 140 17433ft 313kts
07-Dec-17 10:21 34.712314 -109.770137 140 17434ft 313kts
07-Dec-17 10:22 34.639670 -109.712039 140 17434ft 313kts
07-Dec-17 10:23 34.567045 -109.654072 140 17435ft 313kts
07-Dec-17 10:24 34.494366 -109.596188 140 17435ft 313kts
07-Dec-17 10:25 34.421487 -109.538270 140 17436ft 314kts
07-Dec-17 10:26 34.348646 -109.480501 140 17427ft 314kts
07-Dec-17 10:27 34.275599 -109.422692 140 17405ft 315kts
07-Dec-17 10:28 34.202310 -109.364813 140 17392ft 315kts
07-Dec-17 10:29 34.128981 -109.307025 141 17395ft 316kts
07-Dec-17 10:30 34.055510 -109.249245 141 17395ft 316kts
07-Dec-17 10:31 33.981844 -109.191429 141 17396ft 316kts
07-Dec-17 10:32 33.908261 -109.133734 141 17396ft 314kts
07-Dec-17 10:33 33.835885 -109.077166 142 17388ft 310kts
07-Dec-17 10:34 33.764162 -109.021240 142 17388ft 306kts
07-Dec-17 10:35 33.693155 -108.965978 143 17388ft 303kts
07-Dec-17 10:36 33.622710 -108.911311 143 17389ft 301kts
07-Dec-17 10:37 33.552904 -108.857215 143 17389ft 300kts
07-Dec-17 10:38 33.482833 -108.803007 143 17389ft 299kts
07-Dec-17 10:39 33.412919 -108.749016 143 17386ft 300kts
07-Dec-17 10:40 33.343018 -108.695135 143 17363ft 300kts
07-Dec-17 10:41 33.273309 -108.641516 143 17345ft 300kts
07-Dec-17 10:42 33.203755 -108.588113 143 17347ft 300kts
07-Dec-17 10:43 33.133539 -108.534313 143 17345ft 300kts
07-Dec-17 10:44 33.063789 -108.480977 143 17345ft 300kts
07-Dec-17 10:45 32.993404 -108.427231 143 17346ft 302kts
07-Dec-17 10:46 32.923230 -108.373766 143 17347ft 303kts
07-Dec-17 10:47 32.853774 -108.320951 144 17343ft 303kts
07-Dec-17 10:48 32.784688 -108.268069 144 15936ft 293kts
07-Dec-17 10:49 32.718504 -108.217898 145 13973ft 279kts
07-Dec-17 10:50 32.654967 -108.169830 146 12044ft 268kts
07-Dec-17 10:51 32.599161 -108.115544 139 10134ft 257kts
07-Dec-17 10:52 32.539711 -108.139639 251 7602ft 277kts
07-Dec-17 10:53 32.569255 -108.189873 7 7576ft 185kts
07-Dec-17 10:54 32.598565 -108.152173 60 7567ft 155kts
07-Dec-17 10:55 32.628015 -108.120878 344 7094ft 185kts
07-Dec-17 10:56 32.656984 -108.158685 270 6882ft 170kts
07-Dec-17 10:57 32.647005 -108.205055 188 6743ft 139kts
07-Dec-17 10:58 32.632533 -108.176784 92 5779ft 112kts
07-Dec-17 10:59 32.632384 -108.156264 89 5379ft 10kts
07-Dec-17 11:00 32.631853 -108.154223 180 5374ft 0kts
07-Dec-17 11:01 32.631654 -108.154534 265 5374ft 0kts
07-Dec-17 11:02 32.631654 -108.154534 265 5374ft 0kts
07-Dec-17 11:03 32.631654 -108.154534 265 5374ft 0kts
07-Dec-17 11:04 32.631654 -108.154534 265 5374ft 0kts
07-Dec-17 11:05 32.631654 -108.154534 265 5374ft 0kts
07-Dec-17 11:06 32.631654 -108.154534 265 5374ft 0kts
07-Dec-17 11:07 32.631654 -108.154534 265 5374ft 0kts
07-Dec-17 11:08 32.631654 -108.154534 265 5374ft 0kts
07-Dec-17 11:09 32.631654 -108.154534 265 5374ft 0kts
07-Dec-17 11:10 32.631654 -108.154534 265 5374ft 0kts
07-Dec-17 11:11 32.631654 -108.154534 265 5374ft 0kts
07-Dec-17 11:12 32.631654 -108.154534 265 5374ft 0kts
07-Dec-17 11:13 32.631654 -108.154534 265 5374ft 0kts

Navigation Log

Ident Type
Flight plan parsing failed, navigation log unavailable